Time;durP1;ratioP1;P1;durP2;ratioP2;P2;SDS_P1;SDS_P2;PMS_P1;PMS_P2;Temp;Humidity;BMP_temperature;BMP_pressure;BME280_temperature;BME280_humidity;BME280_pressure;Samples;Min_cycle;Max_cycle;Signal;HPM_P1;HPM_P2
2023/08/06 00:01:52;;;;;;;3.35;2.05;;;;;;;16.52;77.90;100806.41;7392673;19;20078;-68
2023/08/06 00:04:20;;;;;;;3.25;1.73;;;;;;;16.53;77.91;100801.91;7396788;19;20369;-68
2023/08/06 00:06:47;;;;;;;3.83;1.80;;;;;;;16.60;77.69;100815.47;7393161;19;20026;-68
2023/08/06 00:09:15;;;;;;;3.35;1.70;;;;;;;16.60;77.69;100810.13;7393733;19;20479;-64
2023/08/06 00:11:43;;;;;;;2.40;1.52;;;;;;;16.62;77.74;100811.69;7393225;19;20492;-68
2023/08/06 00:14:11;;;;;;;3.15;2.03;;;;;;;16.69;77.33;100809.25;7392703;19;20027;-68
2023/08/06 00:16:38;;;;;;;3.42;1.95;;;;;;;16.68;77.62;100815.59;7392940;19;20132;-64
2023/08/06 00:19:06;;;;;;;4.97;2.10;;;;;;;16.60;77.75;100804.78;7393592;19;20349;-72
2023/08/06 00:21:33;;;;;;;5.43;2.30;;;;;;;16.61;77.79;100811.84;7393196;19;20014;-71
2023/08/06 00:24:00;;;;;;;6.32;2.22;;;;;;;16.61;77.72;100799.31;7393057;19;20026;-68
2023/08/06 00:26:28;;;;;;;2.70;1.80;;;;;;;16.65;77.88;100810.53;7392967;19;20018;-65
2023/08/06 00:28:55;;;;;;;7.20;2.40;;;;;;;16.64;77.74;100806.19;7391135;19;20027;-65
2023/08/06 00:31:22;;;;;;;3.67;2.10;;;;;;;16.65;77.85;100798.00;7393045;19;20050;-65
2023/08/06 00:33:50;;;;;;;4.80;2.55;;;;;;;16.68;77.67;100803.06;7392414;19;20017;-64
2023/08/06 00:36:17;;;;;;;4.53;2.38;;;;;;;16.65;77.69;100803.34;7392545;19;20018;-61
2023/08/06 00:38:45;;;;;;;7.63;2.42;;;;;;;16.67;77.45;100805.88;7390412;19;20014;-62
2023/08/06 00:41:12;;;;;;;5.47;2.25;;;;;;;16.71;77.33;100805.44;7392748;19;20039;-65
2023/08/06 00:43:39;;;;;;;3.95;2.25;;;;;;;16.72;77.84;100799.09;7389457;19;20496;-62
2023/08/06 00:46:07;;;;;;;3.25;1.90;;;;;;;16.71;77.57;100802.78;7391847;19;20014;-62
2023/08/06 00:48:34;;;;;;;3.78;2.40;;;;;;;16.76;77.50;100805.84;7391041;19;20014;-66
2023/08/06 00:51:02;;;;;;;3.80;2.20;;;;;;;16.73;77.43;100803.47;7390754;19;20048;-66
2023/08/06 00:53:29;;;;;;;3.72;2.00;;;;;;;16.69;77.37;100790.53;7392273;19;20320;-64
2023/08/06 00:55:58;;;;;;;5.20;2.20;;;;;;;16.72;77.49;100785.72;7391791;19;20134;-59
2023/08/06 00:58:26;;;;;;;4.68;2.15;;;;;;;16.70;77.43;100782.34;7391461;19;20483;-63
2023/08/06 01:00:53;;;;;;;4.45;2.08;;;;;;;16.68;77.42;100784.34;7392504;19;20018;-62
2023/08/06 01:03:20;;;;;;;4.68;2.13;;;;;;;16.69;77.80;100779.84;7392370;19;20018;-62
2023/08/06 01:05:49;;;;;;;3.53;2.10;;;;;;;16.70;77.30;100784.19;7390973;19;20064;-62
2023/08/06 01:08:19;;;;;;;5.72;2.40;;;;;;;16.74;76.92;100775.72;7391104;19;20019;-61
2023/08/06 01:11:08;;;;;;;6.22;2.47;;;;;;;16.75;77.22;100777.44;7392071;19;20018;-62
2023/08/06 01:13:42;;;;;;;4.00;2.20;;;;;;;16.62;77.91;100771.56;7391711;19;20014;-62
2023/08/06 01:16:11;;;;;;;4.75;2.05;;;;;;;16.61;77.61;100759.19;7390847;19;20026;-62
2023/08/06 01:18:39;;;;;;;5.65;2.35;;;;;;;16.62;77.64;100752.84;7388621;19;20026;-62
2023/08/06 01:21:07;;;;;;;6.60;2.40;;;;;;;16.62;77.69;100749.34;7391666;19;20047;-62
2023/08/06 01:23:35;;;;;;;4.55;2.10;;;;;;;16.49;78.12;100753.25;7391521;19;20047;-62
2023/08/06 01:26:10;;;;;;;3.88;2.25;;;;;;;16.58;77.95;100756.81;7390852;19;20031;-62
2023/08/06 01:28:56;;;;;;;5.25;2.95;;;;;;;16.60;78.07;100757.53;7390292;19;20029;-62
2023/08/06 01:31:35;;;;;;;4.20;2.50;;;;;;;16.64;77.97;100745.53;7391029;19;20078;-62
2023/08/06 01:34:05;;;;;;;5.78;2.85;;;;;;;16.58;78.01;100746.97;7388853;19;20082;-61
2023/08/06 01:36:33;;;;;;;6.38;3.25;;;;;;;16.48;77.60;100742.69;7390696;19;20375;-61
2023/08/06 01:39:01;;;;;;;5.57;3.20;;;;;;;16.53;78.27;100748.44;7387391;19;20049;-61
2023/08/06 01:41:28;;;;;;;6.38;3.00;;;;;;;16.57;78.31;100742.63;7391834;19;20036;-61
2023/08/06 01:43:56;;;;;;;7.22;3.20;;;;;;;16.64;77.81;100737.50;7390807;19;20049;-61
2023/08/06 01:46:23;;;;;;;7.43;3.28;;;;;;;16.62;77.98;100744.00;7390370;19;20337;-62
2023/08/06 01:48:50;;;;;;;7.32;3.80;;;;;;;16.51;78.64;100739.72;7388830;19;20022;-61
2023/08/06 01:51:18;;;;;;;7.30;3.40;;;;;;;16.40;78.85;100746.09;7390680;19;20022;-62
2023/08/06 01:53:45;;;;;;;5.22;3.00;;;;;;;16.42;78.82;100743.31;7390977;19;20022;-62
2023/08/06 01:56:12;;;;;;;7.20;3.10;;;;;;;16.51;78.84;100737.88;7390166;19;20031;-63
2023/08/06 01:58:40;;;;;;;5.93;3.08;;;;;;;16.54;78.49;100740.25;7389129;19;20531;-61
2023/08/06 02:01:07;;;;;;;5.32;3.13;;;;;;;16.45;78.86;100733.16;7390685;19;20035;-62
2023/08/06 02:03:34;;;;;;;4.95;2.97;;;;;;;16.46;79.09;100731.31;7391848;19;20056;-61
2023/08/06 02:06:02;;;;;;;4.88;3.00;;;;;;;16.52;78.86;100726.22;7390033;19;20078;-62
2023/08/06 02:08:29;;;;;;;6.13;3.30;;;;;;;16.51;79.14;100726.34;7388869;19;20479;-62
2023/08/06 02:10:58;;;;;;;5.80;3.15;;;;;;;16.51;79.01;100719.16;7390004;19;20018;-62
2023/08/06 02:13:25;;;;;;;5.28;3.40;;;;;;;16.50;78.91;100725.50;7388489;19;20496;-62
2023/08/06 02:15:53;;;;;;;5.32;3.20;;;;;;;16.56;78.53;100734.75;7387415;19;20026;-64
2023/08/06 02:18:20;;;;;;;8.45;3.83;;;;;;;16.46;78.73;100726.81;7390104;19;20018;-63
2023/08/06 02:20:58;;;;;;;8.80;3.50;;;;;;;16.56;78.35;100732.09;7397544;19;20039;-63
2023/08/06 02:23:26;;;;;;;8.05;3.58;;;;;;;16.49;78.75;100728.34;7398032;19;20018;-66
2023/08/06 02:26:02;;;;;;;5.95;3.63;;;;;;;16.50;79.02;100720.16;7395512;19;20015;-66
2023/08/06 02:28:32;;;;;;;6.75;3.40;;;;;;;16.42;79.22;100719.25;7395022;19;20029;-67
2023/08/06 02:30:59;;;;;;;6.75;3.67;;;;;;;16.41;79.28;100717.53;7397399;19;20108;-67
2023/08/06 02:33:27;;;;;;;7.68;3.53;;;;;;;16.40;79.46;100719.38;7397308;19;20010;-67
2023/08/06 02:36:04;;;;;;;6.88;3.42;;;;;;;16.46;79.37;100716.09;7393583;19;20039;-66
2023/08/06 02:38:32;;;;;;;8.68;3.88;;;;;;;16.44;79.02;100717.25;7394783;19;20015;-67
2023/08/06 02:41:03;;;;;;;8.13;3.50;;;;;;;16.52;78.84;100718.19;7397406;19;20337;-67
2023/08/06 02:43:31;;;;;;;5.43;3.35;;;;;;;16.48;78.89;100711.47;7397021;19;20039;-66
2023/08/06 02:46:00;;;;;;;5.72;2.95;;;;;;;16.51;79.05;100710.28;7396355;19;20357;-66
2023/08/06 02:48:28;;;;;;;5.60;3.10;;;;;;;16.50;78.76;100708.63;7394581;19;20044;-66
2023/08/06 02:50:59;;;;;;;6.18;3.42;;;;;;;16.45;78.75;100701.06;7396433;19;20528;-66
2023/08/06 02:53:27;;;;;;;5.00;3.22;;;;;;;16.38;78.98;100716.03;7396747;19;20091;-66
2023/08/06 02:55:55;;;;;;;6.13;3.20;;;;;;;16.36;79.18;100706.47;7393126;19;20106;-66
2023/08/06 02:58:22;;;;;;;5.43;3.20;;;;;;;16.43;78.80;100707.56;7394471;19;20018;-66
2023/08/06 03:01:00;;;;;;;6.45;3.50;;;;;;;16.45;78.66;100700.22;7396570;19;20022;-66
2023/08/06 03:03:30;;;;;;;6.70;3.25;;;;;;;16.32;79.37;100689.91;7397883;19;20014;-65
2023/08/06 03:05:57;;;;;;;6.15;3.22;;;;;;;16.25;79.55;100686.97;7396240;19;20022;-65
2023/08/06 03:08:25;;;;;;;7.25;3.40;;;;;;;16.30;79.58;100679.38;7394351;19;20094;-66
2023/08/06 03:10:53;;;;;;;5.07;2.90;;;;;;;16.37;79.05;100686.75;7396093;19;20018;-66
2023/08/06 03:13:20;;;;;;;4.93;3.35;;;;;;;16.35;79.23;100678.91;7396434;19;20077;-66
2023/08/06 03:15:58;;;;;;;6.97;3.05;;;;;;;16.30;79.27;100683.88;7392825;19;20035;-67
2023/08/06 03:18:26;;;;;;;6.63;3.35;;;;;;;16.22;79.38;100676.63;7394753;19;20414;-64
2023/08/06 03:20:54;;;;;;;7.35;3.30;;;;;;;16.22;79.61;100675.78;7395479;19;20035;-64
2023/08/06 03:23:21;;;;;;;5.05;3.03;;;;;;;16.19;79.42;100668.06;7394004;19;20023;-64
2023/08/06 03:25:48;;;;;;;5.88;3.47;;;;;;;16.28;79.29;100677.84;7395011;19;20018;-64
2023/08/06 03:28:16;;;;;;;6.00;3.22;;;;;;;16.10;79.29;100675.13;7393560;19;20090;-64
2023/08/06 03:30:43;;;;;;;6.00;3.00;;;;;;;15.99;79.92;100665.53;7394711;19;20618;-64
2023/08/06 03:33:11;;;;;;;6.15;3.15;;;;;;;16.14;79.33;100665.84;7395065;19;20036;-65
2023/08/06 03:35:38;;;;;;;7.38;3.72;;;;;;;16.17;79.30;100659.34;7392697;19;20085;-64
2023/08/06 03:38:05;;;;;;;6.75;3.58;;;;;;;16.07;79.45;100657.59;7393678;19;20325;-63
2023/08/06 03:40:35;;;;;;;7.25;4.00;;;;;;;16.08;79.18;100647.75;7395332;19;20014;-63
2023/08/06 03:43:03;;;;;;;6.38;3.65;;;;;;;16.03;79.49;100653.56;7395052;19;20033;-63
2023/08/06 03:45:30;;;;;;;8.10;3.92;;;;;;;16.07;79.71;100646.06;7394544;19;20022;-64
2023/08/06 03:47:58;;;;;;;6.68;3.97;;;;;;;16.09;79.49;100650.25;7393549;19;20035;-64
2023/08/06 03:50:25;;;;;;;6.43;3.80;;;;;;;16.09;79.40;100641.41;7394778;19;20019;-64
2023/08/06 03:52:52;;;;;;;7.45;3.75;;;;;;;16.13;79.55;100637.44;7394271;19;20051;-64
2023/08/06 03:55:20;;;;;;;6.95;3.60;;;;;;;16.14;79.82;100632.94;7393491;19;20034;-64
2023/08/06 03:57:48;;;;;;;7.70;4.18;;;;;;;16.19;79.45;100636.84;7390898;19;20044;-63
2023/08/06 04:00:15;;;;;;;7.15;3.90;;;;;;;16.19;79.79;100636.84;7394034;19;20111;-64
2023/08/06 04:02:42;;;;;;;7.05;3.97;;;;;;;16.18;79.68;100635.16;7394580;19;20094;-64
2023/08/06 04:05:10;;;;;;;6.53;4.10;;;;;;;16.16;79.67;100634.47;7398643;19;20019;-64
2023/08/06 04:07:37;;;;;;;5.38;3.60;;;;;;;16.15;79.81;100630.13;7392509;19;20505;-63
2023/08/06 04:10:05;;;;;;;6.68;4.30;;;;;;;16.21;79.67;100634.84;7393616;19;20018;-62
2023/08/06 04:12:36;;;;;;;6.95;3.95;;;;;;;16.22;79.85;100631.19;7394391;19;20361;-68
2023/08/06 04:15:04;;;;;;;5.82;3.72;;;;;;;16.23;79.79;100638.22;7392875;19;20035;-68
2023/08/06 04:17:31;;;;;;;6.93;3.80;;;;;;;16.23;79.65;100635.53;7392859;19;20035;-67
2023/08/06 04:19:58;;;;;;;8.13;4.22;;;;;;;16.27;79.44;100641.41;7393766;19;20479;-67
2023/08/06 04:22:26;;;;;;;6.63;3.65;;;;;;;16.32;79.36;100647.97;7391769;19;20503;-68
2023/08/06 04:24:53;;;;;;;8.23;4.07;;;;;;;16.35;79.54;100643.34;7393431;19;20014;-66
2023/08/06 04:27:21;;;;;;;7.47;4.00;;;;;;;16.31;79.24;100638.28;7392158;19;20022;-66
2023/08/06 04:29:48;;;;;;;8.27;3.97;;;;;;;16.29;79.52;100634.06;7392909;19;20014;-66
2023/08/06 04:32:15;;;;;;;9.32;4.82;;;;;;;16.29;79.36;100634.94;7394018;19;20035;-65
2023/08/06 04:34:43;;;;;;;8.25;4.32;;;;;;;16.25;79.56;100633.53;7392773;19;20018;-66
2023/08/06 04:37:10;;;;;;;8.63;4.72;;;;;;;16.20;79.47;100635.00;7391608;19;20030;-66
2023/08/06 04:39:38;;;;;;;10.13;4.78;;;;;;;16.22;79.71;100639.22;7393753;19;20052;-65
2023/08/06 04:42:05;;;;;;;6.70;4.30;;;;;;;16.27;79.58;100642.25;7390654;19;20018;-65
2023/08/06 04:44:33;;;;;;;9.35;5.40;;;;;;;16.32;79.33;100639.97;7393015;19;20026;-65
2023/08/06 04:47:00;;;;;;;12.13;6.70;;;;;;;16.26;79.46;100642.44;7392169;19;20022;-64
2023/08/06 04:49:28;;;;;;;11.38;6.57;;;;;;;16.24;79.43;100647.91;7391374;19;20155;-65
2023/08/06 04:51:55;;;;;;;11.63;5.97;;;;;;;16.19;80.45;100644.84;7392470;19;20089;-65
2023/08/06 04:54:22;;;;;;;10.35;6.00;;;;;;;16.30;79.70;100641.97;7393313;19;20032;-65
2023/08/06 04:56:49;;;;;;;9.63;5.95;;;;;;;16.36;79.73;100639.66;7389237;19;20031;-65
2023/08/06 04:59:17;;;;;;;9.48;5.32;;;;;;;16.34;79.78;100634.47;7392410;19;20022;-65
2023/08/06 05:01:44;;;;;;;9.80;5.25;;;;;;;16.36;79.48;100645.84;7392999;19;20018;-65
2023/08/06 05:04:11;;;;;;;7.43;5.30;;;;;;;16.39;79.34;100642.88;7393903;19;20034;-65
2023/08/06 05:06:40;;;;;;;7.68;5.03;;;;;;;16.35;79.23;100638.00;7391738;19;20034;-65
2023/08/06 05:09:07;;;;;;;7.80;4.93;;;;;;;16.34;79.42;100637.16;7393726;19;20047;-72
2023/08/06 05:11:35;;;;;;;9.05;4.95;;;;;;;16.36;79.42;100642.31;7390840;19;20409;-72
2023/08/06 05:14:02;;;;;;;8.88;5.63;;;;;;;16.37;79.56;100650.22;7391444;19;20022;-74
2023/08/06 05:16:29;;;;;;;7.30;4.57;;;;;;;16.41;79.74;100651.59;7388255;19;20487;-74
2023/08/06 05:18:57;;;;;;;7.57;4.88;;;;;;;16.48;79.41;100652.66;7390353;19;20039;-74
2023/08/06 05:21:24;;;;;;;7.80;4.80;;;;;;;16.46;79.35;100645.78;7392088;19;20040;-74
2023/08/06 05:23:51;;;;;;;7.32;4.85;;;;;;;16.46;79.31;100646.59;7391285;19;20019;-64
2023/08/06 05:26:19;;;;;;;8.93;5.60;;;;;;;16.46;79.42;100646.59;7389501;19;20039;-63
2023/08/06 05:28:46;;;;;;;11.25;5.60;;;;;;;16.46;79.58;100649.28;7390566;19;20407;-63
2023/08/06 05:31:14;;;;;;;10.05;5.60;;;;;;;16.46;79.54;100654.63;7391851;19;20019;-63
2023/08/06 05:33:41;;;;;;;9.88;5.53;;;;;;;16.46;79.33;100657.28;7389945;19;20040;-67
2023/08/06 05:36:09;;;;;;;9.98;5.30;;;;;;;16.48;79.40;100647.31;7387903;19;20068;-67
2023/08/06 05:38:36;;;;;;;11.27;5.68;;;;;;;16.53;79.59;100649.50;7390339;19;20032;-66
2023/08/06 05:41:03;;;;;;;9.77;5.75;;;;;;;16.50;79.64;100647.97;7389043;19;20018;-66
2023/08/06 05:43:31;;;;;;;9.43;5.90;;;;;;;16.60;79.07;100650.56;7389196;19;20558;-66
2023/08/06 05:45:58;;;;;;;10.02;6.20;;;;;;;16.66;78.80;100649.94;7390054;19;20499;-66
2023/08/06 05:48:27;;;;;;;9.60;5.93;;;;;;;16.63;78.92;100649.41;7389929;19;20025;-64
2023/08/06 05:50:55;;;;;;;9.02;5.60;;;;;;;16.57;79.38;100656.22;7390784;19;20401;-63
2023/08/06 05:53:22;;;;;;;9.70;6.03;;;;;;;16.63;79.10;100654.75;7387977;19;20018;-63
2023/08/06 05:55:50;;;;;;;10.95;6.28;;;;;;;16.70;78.77;100651.31;7388953;19;20014;-63
2023/08/06 05:58:19;;;;;;;9.07;5.13;;;;;;;16.79;78.53;100652.25;7389485;19;20393;-62
2023/08/06 06:00:47;;;;;;;9.63;5.53;;;;;;;16.74;78.71;100652.69;7390205;19;20491;-62
2023/08/06 06:03:14;;;;;;;6.93;4.38;;;;;;;16.74;78.67;100652.69;7390583;19;20015;-62
2023/08/06 06:05:41;;;;;;;6.30;4.28;;;;;;;16.75;78.97;100650.88;7389916;19;20470;-63
2023/08/06 06:08:09;;;;;;;6.68;4.63;;;;;;;16.71;78.78;100647.66;7388991;19;20487;-64
2023/08/06 06:10:36;;;;;;;8.70;4.53;;;;;;;16.69;78.75;100638.09;7390191;19;20082;-65
2023/08/06 06:13:04;;;;;;;9.93;5.47;;;;;;;16.71;78.40;100638.78;7390272;19;20014;-65
2023/08/06 06:15:33;;;;;;;10.70;5.43;;;;;;;16.78;78.48;100643.38;7389240;19;20393;-66
2023/08/06 06:18:49;;;;;;;7.10;4.53;;;;;;;16.81;78.45;100639.56;7389059;19;20022;-66
2023/08/06 06:20:54;;;;;;;8.00;5.20;;;;;;;16.73;78.62;100644.81;7389304;19;20039;-68
2023/08/06 06:23:21;;;;;;;8.00;4.75;;;;;;;16.83;78.98;100647.41;7389538;19;20492;-70
2023/08/06 06:25:52;;;;;;;9.52;5.07;;;;;;;16.78;78.74;100646.03;7389595;19;20078;-70
2023/08/06 06:28:20;;;;;;;9.15;5.10;;;;;;;16.80;78.77;100648.59;7388826;19;20086;-63
2023/08/06 06:30:47;;;;;;;8.68;4.82;;;;;;;16.79;78.34;100653.09;7390416;19;20359;-63
2023/08/06 06:33:15;;;;;;;8.45;5.28;;;;;;;16.85;78.55;100648.09;7390007;19;20020;-64
2023/08/06 06:35:42;;;;;;;7.53;4.63;;;;;;;16.93;78.01;100642.81;7388115;19;20107;-62
2023/08/06 06:38:10;;;;;;;9.40;5.30;;;;;;;16.96;78.50;100645.19;7387039;19;20516;-62
2023/08/06 06:40:37;;;;;;;7.40;4.60;;;;;;;16.99;78.33;100660.91;7389446;19;20056;-62
2023/08/06 06:43:05;;;;;;;8.35;4.97;;;;;;;16.98;78.17;100657.41;7388929;19;20021;-62
2023/08/06 06:45:32;;;;;;;7.78;4.85;;;;;;;17.05;78.15;100653.09;7388225;19;20018;-65
2023/08/06 06:47:59;;;;;;;10.07;6.10;;;;;;;17.11;78.09;100650.78;7389181;19;20019;-62
2023/08/06 06:50:27;;;;;;;11.65;7.13;;;;;;;17.16;77.55;100660.00;7389316;19;20081;-61
2023/08/06 06:52:57;;;;;;;10.23;6.47;;;;;;;17.22;77.46;100658.56;7389203;19;20499;-65
2023/08/06 06:55:24;;;;;;;11.38;6.93;;;;;;;17.22;77.51;100656.72;7388501;19;20086;-66
2023/08/06 06:57:52;;;;;;;11.82;7.28;;;;;;;17.25;77.43;100660.91;7386732;19;20039;-65
2023/08/06 07:00:19;;;;;;;13.27;8.43;;;;;;;17.25;77.77;100666.28;7388771;19;20022;-65
2023/08/06 07:02:47;;;;;;;10.55;6.25;;;;;;;17.19;77.81;100665.06;7389185;19;20160;-65
2023/08/06 07:05:14;;;;;;;9.95;6.18;;;;;;;17.19;77.60;100672.25;7397317;19;20014;-65
2023/08/06 07:07:42;;;;;;;12.43;6.78;;;;;;;17.26;77.61;100665.28;7394877;19;20014;-65
2023/08/06 07:10:09;;;;;;;12.00;6.43;;;;;;;17.30;77.23;100667.47;7393919;19;20035;-63
2023/08/06 07:12:37;;;;;;;9.70;5.95;;;;;;;17.30;76.92;100658.59;7395680;19;20018;-63
2023/08/06 07:15:07;;;;;;;10.75;6.13;;;;;;;17.39;77.09;100662.16;7394343;19;20010;-69
2023/08/06 07:17:35;;;;;;;11.10;6.38;;;;;;;17.39;77.17;100662.16;7390133;19;20398;-68
2023/08/06 07:20:03;;;;;;;9.10;5.20;;;;;;;17.38;77.03;100668.50;7393893;19;20018;-70
2023/08/06 07:22:30;;;;;;;7.55;4.55;;;;;;;17.45;76.23;100667.72;7395714;19;20055;-69
2023/08/06 07:24:57;;;;;;;8.55;4.63;;;;;;;17.40;76.66;100670.03;7396019;19;20033;-72
2023/08/06 07:27:25;;;;;;;7.05;4.25;;;;;;;17.52;77.14;100674.09;7392983;19;20047;-66
2023/08/06 07:29:53;;;;;;;8.00;4.45;;;;;;;17.52;76.67;100674.09;7393695;19;20032;-69
2023/08/06 07:32:20;;;;;;;6.15;4.57;;;;;;;17.46;76.72;100674.72;7393997;19;20022;-68
2023/08/06 07:34:47;;;;;;;8.23;4.90;;;;;;;17.37;77.28;100656.97;7395027;19;20470;-69
2023/08/06 07:37:15;;;;;;;7.95;5.07;;;;;;;17.43;76.99;100667.03;7392096;19;20048;-70
2023/08/06 07:39:42;;;;;;;8.70;4.65;;;;;;;17.40;76.46;100669.16;7394803;19;20503;-74
2023/08/06 07:42:10;;;;;;;9.18;5.22;;;;;;;17.35;76.75;100664.31;7395096;19;20352;-74
2023/08/06 07:44:38;;;;;;;8.32;4.90;;;;;;;17.54;76.18;100671.25;7393097;19;20026;-72
2023/08/06 07:47:07;;;;;;;8.25;4.97;;;;;;;17.52;76.03;100658.03;7394517;19;20076;-72
2023/08/06 07:49:34;;;;;;;9.18;5.75;;;;;;;17.52;76.11;100665.25;7395108;19;20071;-72
2023/08/06 07:52:02;;;;;;;9.40;5.72;;;;;;;17.60;75.79;100659.91;7393110;19;20107;-66
2023/08/06 07:54:29;;;;;;;10.10;5.47;;;;;;;17.76;75.07;100665.34;7392491;19;20504;-64
2023/08/06 07:56:57;;;;;;;9.18;5.90;;;;;;;17.77;75.04;100664.34;7391940;19;20609;-65
2023/08/06 07:59:24;;;;;;;10.25;4.85;;;;;;;17.88;75.15;100663.22;7392022;19;20492;-68
2023/08/06 08:01:51;;;;;;;9.93;5.90;;;;;;;18.03;74.62;100660.75;7393006;19;20022;-68
2023/08/06 08:04:20;;;;;;;9.80;6.13;;;;;;;18.15;73.89;100656.75;7394976;19;20042;-70
2023/08/06 08:06:49;;;;;;;10.73;7.03;;;;;;;17.95;73.83;100656.22;7393641;19;20043;-71
2023/08/06 08:09:16;;;;;;;9.77;6.55;;;;;;;17.77;74.17;100658.16;7390660;19;20040;-68
2023/08/06 08:11:43;;;;;;;11.02;6.80;;;;;;;17.80;74.36;100659.69;7394050;19;20051;-68
2023/08/06 08:14:11;;;;;;;10.30;6.50;;;;;;;17.92;74.69;100653.00;7393885;19;20011;-70
2023/08/06 08:16:38;;;;;;;9.38;6.05;;;;;;;18.03;74.20;100648.19;7389985;19;20011;-70
2023/08/06 08:19:06;;;;;;;11.20;6.72;;;;;;;18.03;74.79;100650.03;7392142;19;20497;-65
2023/08/06 08:21:33;;;;;;;11.90;7.13;;;;;;;18.04;74.18;100649.03;7391885;19;20014;-65
2023/08/06 08:24:01;;;;;;;12.88;7.28;;;;;;;18.06;73.81;100644.34;7392171;19;20022;-67
2023/08/06 08:26:28;;;;;;;10.85;5.65;;;;;;;18.19;73.01;100646.53;7393743;19;20019;-67
2023/08/06 08:28:56;;;;;;;10.52;6.45;;;;;;;18.28;73.03;100637.53;7390218;19;20070;-65
2023/08/06 08:31:24;;;;;;;10.27;6.32;;;;;;;18.36;73.26;100642.06;7391802;19;20063;-65
2023/08/06 08:33:51;;;;;;;8.05;5.47;;;;;;;18.52;72.84;100640.19;7392998;19;20018;-65
2023/08/06 08:36:21;;;;;;;8.43;5.35;;;;;;;18.63;72.92;100636.34;7392208;19;20029;-65
2023/08/06 08:38:49;;;;;;;6.80;4.63;;;;;;;18.67;73.16;100634.16;7389471;19;20018;-65
2023/08/06 08:41:17;;;;;;;13.10;9.52;;;;;;;18.52;73.45;100636.69;7391366;19;20026;-65
2023/08/06 08:43:44;;;;;;;8.10;4.30;;;;;;;18.40;73.71;100625.47;7391574;19;20018;-66
2023/08/06 08:46:13;;;;;;;6.82;4.15;;;;;;;18.36;73.77;100628.66;7392010;19;20078;-65
2023/08/06 08:48:41;;;;;;;5.78;3.70;;;;;;;18.37;73.82;100624.94;7389806;19;20023;-66
2023/08/06 08:51:09;;;;;;;6.15;3.90;;;;;;;18.26;74.02;100626.94;7393052;19;20032;-66
2023/08/06 08:53:39;;;;;;;6.55;3.67;;;;;;;18.28;74.13;100629.47;7393091;19;20345;-66
2023/08/06 08:56:06;;;;;;;7.80;4.15;;;;;;;18.33;74.27;100620.94;7392087;19;20093;-66
2023/08/06 08:58:34;;;;;;;7.80;4.10;;;;;;;18.34;73.95;100623.44;7391671;19;20022;-64
2023/08/06 09:01:02;;;;;;;6.15;3.67;;;;;;;18.29;74.60;100622.28;7392708;19;20409;-64
2023/08/06 09:03:29;;;;;;;5.57;3.30;;;;;;;18.30;74.97;100626.63;7391534;19;20105;-67
2023/08/06 09:05:59;;;;;;;5.95;3.90;;;;;;;18.27;74.94;100623.25;7392106;19;20031;-67
2023/08/06 09:08:34;;;;;;;5.90;3.78;;;;;;;18.34;74.06;100618.06;7391492;19;20043;-66
2023/08/06 09:11:02;;;;;;;4.18;2.90;;;;;;;18.38;74.35;100614.03;7392084;19;20491;-65
2023/08/06 09:13:30;;;;;;;7.45;3.35;;;;;;;18.49;74.06;100615.56;7390710;19;20095;-66
2023/08/06 09:15:57;;;;;;;4.68;3.00;;;;;;;18.51;73.59;100606.34;7389989;19;20014;-66
2023/08/06 09:18:27;;;;;;;5.15;3.13;;;;;;;18.49;73.94;100602.16;7391015;19;20479;-69
2023/08/06 09:20:56;;;;;;;4.88;3.00;;;;;;;18.54;73.77;100615.06;7391754;19;20018;-66
2023/08/06 09:23:31;;;;;;;5.03;3.00;;;;;;;18.59;73.35;100608.19;7392244;19;20357;-66
2023/08/06 09:25:59;;;;;;;5.55;3.00;;;;;;;18.55;73.62;100620.28;7390565;19;20022;-65
2023/08/06 09:28:41;;;;;;;7.05;2.88;;;;;;;18.58;72.76;100611.03;7388779;19;20074;-69
2023/08/06 09:31:10;;;;;;;3.97;2.85;;;;;;;18.59;73.04;100618.91;7391062;19;20074;-63
2023/08/06 09:33:38;;;;;;;5.28;2.90;;;;;;;18.56;73.55;100613.88;7391466;19;20515;-65
2023/08/06 09:36:12;;;;;;;4.60;2.75;;;;;;;18.62;73.77;100612.38;7390554;19;20714;-65
2023/08/06 09:38:40;;;;;;;4.88;2.70;;;;;;;18.59;74.32;100613.56;7388690;19;20502;-67
2023/08/06 09:41:08;;;;;;;4.78;2.55;;;;;;;18.62;74.43;100612.38;7389602;19;20025;-67
2023/08/06 09:43:45;;;;;;;4.47;2.78;;;;;;;18.63;74.54;100609.53;7390958;19;20018;-65
2023/08/06 09:46:14;;;;;;;4.53;2.47;;;;;;;18.60;74.51;100609.03;7390187;19;20018;-63
2023/08/06 09:48:45;;;;;;;4.80;2.67;;;;;;;18.58;74.96;100606.50;7388363;19;20036;-63
2023/08/06 09:51:13;;;;;;;3.53;2.17;;;;;;;18.62;73.85;100617.72;7391058;19;20015;-63
2023/08/06 09:53:41;;;;;;;2.63;1.85;;;;;;;18.63;73.23;100608.69;7391053;19;20030;-63
2023/08/06 09:56:11;;;;;;;3.85;1.77;;;;;;;18.62;72.75;100604.31;7390146;19;20018;-66
2023/08/06 09:58:39;;;;;;;3.67;1.88;;;;;;;18.56;72.85;100605.84;7390446;19;20027;-66
2023/08/06 10:01:07;;;;;;;4.43;1.92;;;;;;;18.58;72.50;100595.75;7390689;19;20011;-65
2023/08/06 10:03:35;;;;;;;3.58;1.92;;;;;;;18.62;72.38;100607.00;7391140;19;20014;-78
2023/08/06 10:06:06;;;;;;;3.90;2.03;;;;;;;18.69;72.33;100606.16;7390029;19;20126;-76
2023/08/06 10:08:34;;;;;;;4.85;1.92;;;;;;;18.72;72.81;100600.47;7388863;19;20015;-69
2023/08/06 10:11:04;;;;;;;5.90;2.97;;;;;;;18.78;72.77;100598.97;7390968;19;20077;-69
2023/08/06 10:13:33;;;;;;;2.65;1.80;;;;;;;18.83;71.63;100601.16;7391580;19;20039;-78
2023/08/06 10:16:03;;;;;;;3.63;1.95;;;;;;;18.98;71.31;100597.59;7390691;19;20031;-78
2023/08/06 10:21:16;;;;;;;4.15;2.03;;;;;;;19.28;70.90;100602.38;7390375;19;20428;-77
2023/08/06 10:23:43;;;;;;;3.72;2.20;;;;;;;19.41;69.81;100597.28;7393622;19;20126;-77
2023/08/06 10:26:10;;;;;;;4.13;2.10;;;;;;;19.59;69.41;100595.19;7391040;19;20022;-77
2023/08/06 10:36:15;;;;;;;19.98;4.18;;;;;;;19.65;68.38;100574.84;7388259;19;20013;-70
2023/08/06 10:38:48;;;;;;;4.03;2.20;;;;;;;19.94;68.42;100599.19;7386484;19;20038;-69
2023/08/06 10:41:27;;;;;;;9.23;2.65;;;;;;;20.03;68.09;100594.59;7396223;19;20015;-69
2023/08/06 10:44:12;;;;;;;3.45;2.00;;;;;;;20.07;68.88;100592.38;7396727;19;20022;-68
2023/08/06 10:46:39;;;;;;;4.60;2.05;;;;;;;20.08;69.26;100589.53;7395897;19;20031;-76
2023/08/06 10:56:16;;;;;;;7.45;2.00;;;;;;;20.03;68.48;100577.63;7390672;19;20022;-74
2023/08/06 10:58:46;;;;;;;3.88;1.95;;;;;;;20.07;68.21;100565.50;7393502;19;20019;-75
2023/08/06 11:01:13;;;;;;;5.25;1.98;;;;;;;20.13;68.11;100576.38;7396143;19;20024;-64
2023/08/06 11:03:46;;;;;;;2.42;1.52;;;;;;;20.08;66.52;100573.41;7397221;19;20022;-64
2023/08/06 11:06:19;;;;;;;3.35;1.60;;;;;;;20.11;65.17;100575.75;7396108;19;20026;-64
2023/08/06 11:08:49;;;;;;;14.02;2.45;;;;;;;20.18;65.85;100583.91;7393522;19;20014;-61
2023/08/06 11:11:17;;;;;;;14.52;2.30;;;;;;;20.19;65.05;100580.22;7396539;19;20094;-62
2023/08/06 11:13:49;;;;;;;4.82;1.60;;;;;;;20.19;64.39;100570.28;7395997;19;20019;-62
2023/08/06 11:16:19;;;;;;;6.43;1.70;;;;;;;20.24;64.02;100572.44;7395150;19;20043;-62
2023/08/06 11:18:47;;;;;;;3.20;1.35;;;;;;;20.29;63.49;100564.66;7393421;19;20023;-62
2023/08/06 11:21:19;;;;;;;4.20;1.40;;;;;;;20.32;63.61;100561.59;7396248;19;20019;-63
2023/08/06 11:23:46;;;;;;;2.60;1.33;;;;;;;20.31;64.23;100561.81;7396645;19;20018;-62
2023/08/06 11:26:23;;;;;;;2.88;1.40;;;;;;;20.30;62.46;100560.09;7394803;19;20019;-63
2023/08/06 11:28:51;;;;;;;1.58;1.20;;;;;;;20.15;62.16;100562.78;7394572;19;20014;-62
2023/08/06 11:31:20;;;;;;;3.05;1.40;;;;;;;20.24;62.21;100568.91;7393777;19;20015;-64
2023/08/06 11:33:50;;;;;;;3.30;1.55;;;;;;;20.34;62.14;100564.13;7395814;19;20014;-64
2023/08/06 11:36:36;;;;;;;3.00;1.58;;;;;;;20.43;61.73;100566.56;7394297;19;20369;-63
2023/08/06 11:39:06;;;;;;;1.83;1.33;;;;;;;20.40;61.14;100566.91;7391594;19;20022;-63
2023/08/06 11:41:33;;;;;;;2.17;1.50;;;;;;;20.54;60.92;100556.41;7395179;19;20025;-62
2023/08/06 11:44:01;;;;;;;1.92;1.20;;;;;;;20.74;59.84;100556.72;7395699;19;20026;-64
2023/08/06 11:46:28;;;;;;;4.18;1.60;;;;;;;20.97;59.19;100545.84;7392606;19;20027;-64
2023/08/06 11:48:58;;;;;;;3.53;1.52;;;;;;;21.09;58.85;100541.66;7393932;19;20022;-62